N6229P KATL-KCKF
Flight info
| Callsign | N6229P |
|---|---|
| Flight time | 1h 1m |
| Altitude | 7000 |
| Route | ATL2 SOONE |
| Aircraft | PA24/L-VGD/C |
Departure
| Time | 2026-01-03 23:36 |
|---|---|
| Airport | Hartsfield Jackson Atlanta International Airport (KATL) |
Arrival
| Time | 2026-01-04 00:37 |
|---|---|
| Airport | Crisp County Cordele Airport (KCKF) |
| Time | Latitude | Longitude | Altitude | Speed | Heading |
|---|---|---|---|---|---|
| 2026-01-03 23:15 | 33.65204 | -84.42441 | 1008 ft | 0 kts | 207° |
| 2026-01-03 23:30 | 33.65189 | -84.42450 | 1008 ft | 6 kts | 209° |
| 2026-01-03 23:30 | 33.65137 | -84.42473 | 1010 ft | 8 kts | 201° |
| 2026-01-03 23:30 | 33.65077 | -84.42607 | 1008 ft | 11 kts | 233° |
| 2026-01-03 23:31 | 33.65064 | -84.42937 | 1010 ft | 17 kts | 269° |
| 2026-01-03 23:32 | 33.65107 | -84.43413 | 1013 ft | 13 kts | 301° |
| 2026-01-03 23:32 | 33.65120 | -84.43676 | 1016 ft | 19 kts | 270° |
| 2026-01-03 23:33 | 33.65073 | -84.43865 | 1022 ft | 10 kts | 215° |
| 2026-01-03 23:33 | 33.64829 | -84.43879 | 1020 ft | 15 kts | 195° |
| 2026-01-03 23:34 | 33.64683 | -84.43784 | 1026 ft | 13 kts | 110° |
| 2026-01-03 23:35 | 33.64673 | -84.42922 | 1152 ft | 84 kts | 89° |
| 2026-01-03 23:35 | 33.64304 | -84.40761 | 2111 ft | 102 kts | 144° |
| 2026-01-03 23:36 | 33.63605 | -84.40533 | 2468 ft | 105 kts | 156° |
| 2026-01-03 23:36 | 33.62317 | -84.39724 | 3164 ft | 106 kts | 150° |
| 2026-01-03 23:37 | 33.60993 | -84.38875 | 3794 ft | 109 kts | 151° |
| 2026-01-03 23:37 | 33.59589 | -84.37907 | 4015 ft | 127 kts | 144° |
| 2026-01-03 23:38 | 33.57178 | -84.36272 | 4065 ft | 138 kts | 146° |
| 2026-01-03 23:38 | 33.55536 | -84.35086 | 4061 ft | 139 kts | 145° |
| 2026-01-03 23:39 | 33.53075 | -84.33228 | 4064 ft | 141 kts | 145° |
| 2026-01-03 23:39 | 33.52244 | -84.32597 | 4091 ft | 141 kts | 145° |
| 2026-01-03 23:40 | 33.50347 | -84.32112 | 4091 ft | 142 kts | 174° |
| 2026-01-03 23:40 | 33.48378 | -84.31917 | 4100 ft | 142 kts | 174° |
| 2026-01-03 23:41 | 33.47384 | -84.31820 | 4108 ft | 145 kts | 175° |
| 2026-01-03 23:41 | 33.44469 | -84.31537 | 4897 ft | 135 kts | 174° |
| 2026-01-03 23:42 | 33.42591 | -84.31025 | 5257 ft | 139 kts | 155° |
| 2026-01-03 23:42 | 33.40821 | -84.30097 | 5642 ft | 143 kts | 155° |
| 2026-01-03 23:43 | 33.38112 | -84.28632 | 6280 ft | 143 kts | 155° |
| 2026-01-03 23:43 | 33.37211 | -84.28138 | 6453 ft | 146 kts | 154° |
| 2026-01-03 23:44 | 33.35354 | -84.27113 | 6800 ft | 146 kts | 154° |
| 2026-01-03 23:44 | 33.33488 | -84.26058 | 6997 ft | 152 kts | 154° |
| 2026-01-03 23:45 | 33.31566 | -84.24961 | 6986 ft | 151 kts | 154° |
| 2026-01-03 23:45 | 33.29701 | -84.23898 | 6978 ft | 149 kts | 154° |
| 2026-01-03 23:46 | 33.27823 | -84.22819 | 6990 ft | 151 kts | 154° |
| 2026-01-03 23:46 | 33.25928 | -84.21726 | 6972 ft | 152 kts | 154° |
| 2026-01-03 23:47 | 33.23075 | -84.20070 | 6964 ft | 152 kts | 154° |
| 2026-01-03 23:47 | 33.22123 | -84.19514 | 6960 ft | 151 kts | 153° |
| 2026-01-03 23:48 | 33.20534 | -84.18623 | 6958 ft | 152 kts | 159° |
| 2026-01-03 23:48 | 33.18537 | -84.17782 | 6956 ft | 152 kts | 161° |
| 2026-01-03 23:49 | 33.16520 | -84.17088 | 6947 ft | 151 kts | 168° |
| 2026-01-03 23:49 | 33.14455 | -84.16565 | 6950 ft | 151 kts | 170° |
| 2026-01-03 23:50 | 33.12398 | -84.16157 | 6953 ft | 150 kts | 173° |
| 2026-01-03 23:50 | 33.11366 | -84.15996 | 6954 ft | 149 kts | 175° |
| 2026-01-03 23:50 | 33.09308 | -84.15709 | 6952 ft | 148 kts | 175° |
| 2026-01-03 23:51 | 33.06244 | -84.15262 | 6959 ft | 148 kts | 174° |
| 2026-01-03 23:52 | 33.04205 | -84.14903 | 6961 ft | 147 kts | 173° |
| 2026-01-03 23:52 | 33.02184 | -84.14531 | 6970 ft | 147 kts | 173° |
| 2026-01-03 23:53 | 33.00164 | -84.14180 | 6967 ft | 147 kts | 174° |
| 2026-01-03 23:53 | 32.98127 | -84.13853 | 6967 ft | 147 kts | 174° |
| 2026-01-03 23:54 | 32.96110 | -84.13531 | 6961 ft | 147 kts | 174° |
| 2026-01-03 23:54 | 32.95097 | -84.13365 | 6968 ft | 147 kts | 174° |
| 2026-01-03 23:54 | 32.93086 | -84.13023 | 6964 ft | 147 kts | 174° |
| 2026-01-03 23:55 | 32.90056 | -84.12498 | 6965 ft | 147 kts | 174° |
| 2026-01-03 23:56 | 32.88042 | -84.12159 | 6961 ft | 147 kts | 175° |
| 2026-01-03 23:56 | 32.86012 | -84.11828 | 6957 ft | 146 kts | 175° |
| 2026-01-03 23:57 | 32.84005 | -84.11501 | 6957 ft | 146 kts | 175° |
| 2026-01-03 23:57 | 32.81990 | -84.11157 | 6959 ft | 146 kts | 175° |
| 2026-01-03 23:57 | 32.80982 | -84.10987 | 6956 ft | 146 kts | 175° |
| 2026-01-03 23:58 | 32.78971 | -84.10646 | 6948 ft | 146 kts | 175° |
| 2026-01-03 23:58 | 32.76952 | -84.10312 | 6949 ft | 146 kts | 175° |
| 2026-01-03 23:59 | 32.73950 | -84.09814 | 6943 ft | 146 kts | 176° |
| 2026-01-04 00:00 | 32.71935 | -84.09480 | 6940 ft | 146 kts | 176° |
| 2026-01-04 00:00 | 32.69932 | -84.09144 | 6940 ft | 146 kts | 176° |
| 2026-01-04 00:01 | 32.67926 | -84.08812 | 6931 ft | 146 kts | 176° |
| 2026-01-04 00:01 | 32.65919 | -84.08477 | 6778 ft | 147 kts | 176° |
| 2026-01-04 00:01 | 32.64905 | -84.08310 | 6662 ft | 143 kts | 176° |
| 2026-01-04 00:02 | 32.62901 | -84.07973 | 6238 ft | 144 kts | 176° |
| 2026-01-04 00:02 | 32.60913 | -84.07638 | 5959 ft | 142 kts | 176° |
| 2026-01-04 00:03 | 32.57960 | -84.07157 | 5603 ft | 143 kts | 177° |
| 2026-01-04 00:04 | 32.55992 | -84.06826 | 5400 ft | 142 kts | 177° |
| 2026-01-04 00:04 | 32.54051 | -84.06497 | 5206 ft | 141 kts | 177° |
| 2026-01-04 00:05 | 32.52103 | -84.06176 | 5010 ft | 141 kts | 178° |
| 2026-01-04 00:05 | 32.50165 | -84.05852 | 4827 ft | 140 kts | 178° |
| 2026-01-04 00:05 | 32.49205 | -84.05692 | 4731 ft | 140 kts | 178° |
| 2026-01-04 00:06 | 32.47274 | -84.05378 | 4553 ft | 140 kts | 178° |
| 2026-01-04 00:06 | 32.45358 | -84.05082 | 4368 ft | 139 kts | 178° |
| 2026-01-04 00:07 | 32.42486 | -84.04608 | 4125 ft | 139 kts | 176° |
| 2026-01-04 00:08 | 32.40566 | -84.04273 | 4007 ft | 144 kts | 176° |
| 2026-01-04 00:08 | 32.38532 | -84.03931 | 4013 ft | 149 kts | 176° |
| 2026-01-04 00:08 | 32.37497 | -84.03755 | 4019 ft | 150 kts | 176° |
| 2026-01-04 00:09 | 32.35433 | -84.03396 | 4014 ft | 150 kts | 176° |
| 2026-01-04 00:09 | 32.33388 | -84.03079 | 3984 ft | 147 kts | 177° |
| 2026-01-04 00:10 | 32.31362 | -84.02768 | 3988 ft | 145 kts | 176° |
| 2026-01-04 00:10 | 32.29386 | -84.02428 | 3988 ft | 142 kts | 176° |
| 2026-01-04 00:11 | 32.26319 | -84.01916 | 4006 ft | 154 kts | 176° |
| 2026-01-04 00:12 | 32.24213 | -84.01579 | 3990 ft | 153 kts | 176° |
| 2026-01-04 00:12 | 32.23162 | -84.01405 | 3989 ft | 152 kts | 176° |
| 2026-01-04 00:12 | 32.21068 | -84.01048 | 3985 ft | 152 kts | 175° |
| 2026-01-04 00:13 | 32.19001 | -84.00680 | 3991 ft | 150 kts | 176° |
| 2026-01-04 00:13 | 32.16924 | -84.00366 | 3987 ft | 150 kts | 177° |
| 2026-01-04 00:14 | 32.14865 | -84.00049 | 3990 ft | 150 kts | 176° |
| 2026-01-04 00:14 | 32.12815 | -83.99686 | 3988 ft | 149 kts | 176° |
| 2026-01-04 00:15 | 32.09735 | -83.99177 | 3989 ft | 149 kts | 176° |
| 2026-01-04 00:16 | 32.07698 | -83.98834 | 3987 ft | 149 kts | 175° |
| 2026-01-04 00:16 | 32.06665 | -83.98653 | 3989 ft | 149 kts | 176° |
| 2026-01-04 00:16 | 32.04621 | -83.98360 | 3801 ft | 152 kts | 177° |
| 2026-01-04 00:17 | 32.02563 | -83.98042 | 3537 ft | 150 kts | 175° |
| 2026-01-04 00:17 | 32.00533 | -83.97707 | 3366 ft | 146 kts | 174° |
| 2026-01-04 00:18 | 31.98514 | -83.97342 | 3173 ft | 146 kts | 173° |
| 2026-01-04 00:18 | 31.96497 | -83.96998 | 2941 ft | 147 kts | 174° |
| 2026-01-04 00:19 | 31.93477 | -83.96554 | 2650 ft | 145 kts | 174° |
| 2026-01-04 00:19 | 31.92463 | -83.96404 | 2518 ft | 147 kts | 172° |
| 2026-01-04 00:20 | 31.90452 | -83.96058 | 2297 ft | 147 kts | 171° |
| 2026-01-04 00:21 | 31.87504 | -83.95517 | 2093 ft | 129 kts | 172° |
| 2026-01-04 00:21 | 31.86614 | -83.95379 | 1929 ft | 132 kts | 172° |
| 2026-01-04 00:22 | 31.84845 | -83.95049 | 2006 ft | 124 kts | 169° |
| 2026-01-04 00:22 | 31.83300 | -83.95316 | 2098 ft | 109 kts | 204° |
| 2026-01-04 00:23 | 31.82098 | -83.96341 | 2144 ft | 108 kts | 234° |
| 2026-01-04 00:23 | 31.80586 | -83.98248 | 2192 ft | 106 kts | 220° |
| 2026-01-04 00:24 | 31.79700 | -83.99569 | 2135 ft | 113 kts | 285° |
| 2026-01-04 00:24 | 31.80567 | -84.00847 | 2140 ft | 97 kts | 311° |
| 2026-01-04 00:25 | 31.81593 | -84.01763 | 2146 ft | 90 kts | 2° |
| 2026-01-04 00:25 | 31.82270 | -84.00565 | 2045 ft | 100 kts | 76° |
| 2026-01-04 00:26 | 31.82903 | -83.99224 | 2099 ft | 89 kts | 47° |
| 2026-01-04 00:26 | 31.83811 | -83.98181 | 2158 ft | 89 kts | 35° |
| 2026-01-04 00:27 | 31.84300 | -83.97703 | 2155 ft | 91 kts | 38° |
| 2026-01-04 00:27 | 31.85610 | -83.96017 | 2199 ft | 95 kts | 45° |
| 2026-01-04 00:28 | 31.86443 | -83.94829 | 2167 ft | 93 kts | 49° |
| 2026-01-04 00:28 | 31.87182 | -83.93593 | 2138 ft | 92 kts | 45° |
| 2026-01-04 00:29 | 31.87995 | -83.92448 | 2114 ft | 90 kts | 45° |
| 2026-01-04 00:29 | 31.88813 | -83.91351 | 2131 ft | 90 kts | 42° |
| 2026-01-04 00:30 | 31.89242 | -83.90835 | 2146 ft | 88 kts | 40° |
| 2026-01-04 00:30 | 31.90508 | -83.89233 | 2155 ft | 90 kts | 45° |
| 2026-01-04 00:31 | 31.90893 | -83.88664 | 2153 ft | 90 kts | 49° |
| 2026-01-04 00:31 | 31.91927 | -83.86840 | 2140 ft | 86 kts | 40° |
| 2026-01-04 00:32 | 31.92784 | -83.85833 | 2136 ft | 89 kts | 43° |
| 2026-01-04 00:32 | 31.93676 | -83.84804 | 1989 ft | 93 kts | 51° |
| 2026-01-04 00:33 | 31.94046 | -83.84219 | 1901 ft | 83 kts | 45° |
| 2026-01-04 00:33 | 31.95078 | -83.82829 | 1585 ft | 75 kts | 43° |
| 2026-01-04 00:34 | 31.95431 | -83.82338 | 1479 ft | 81 kts | 44° |
| 2026-01-04 00:34 | 31.96241 | -83.81362 | 1242 ft | 85 kts | 41° |
| 2026-01-04 00:35 | 31.96995 | -83.80256 | 1024 ft | 87 kts | 48° |
| 2026-01-04 00:35 | 31.98065 | -83.78851 | 681 ft | 87 kts | 43° |
| 2026-01-04 00:36 | 31.98832 | -83.77745 | 334 ft | 86 kts | 48° |
| 2026-01-04 00:36 | 31.99307 | -83.77088 | 311 ft | 25 kts | 49° |
| 2026-01-04 00:37 | 31.99469 | -83.76861 | 311 ft | 8 kts | 66° |
| 2026-01-04 00:37 | 31.99403 | -83.76784 | 311 ft | 9 kts | 179° |
| 2026-01-04 00:38 | 31.99365 | -83.76787 | 310 ft | 0 kts | 186° |